Pagrindinis puslapis
METAR-TAF:

METAR-TAF

Oro uostai :

Comanche County-City Airport

Comanche, Teksasas, Jungtinės Amerikos Valstijos

platuma: 31-55N, ilguma: 098-36-01W, Aukštis: 423 m

Dabartinis oras

Ataskaita buvo paskelbta 17 minutes, ne 07:03 UTC
Vėjas 4 kt iš Pietų/Pietvakarių
Temperatūra 17°C
Drėgmė 72%
Slėgis 1013 hPa
Matomumas: 16.1 km
Giedras dangus

METAR: KMKN 270703Z AUTO 20004KT 10SM CLR 17/12 A2992 RMK AO2

Laikas: 02:20 (07:20 UTC)


TAF: trūkstamas

Orai ataskaitas ir orų prognozės (METAR, TAF).

turimą stotys yra geltonos ir raudonos taškus žemėlapyje.

Perkelti pele per norėdami pamatyti stoties vardą.

Tada spustelėkite, norėdami matyti oro stebėjimo ir prognozės.

Norėdami pakeisti žemėlapį: spustelėkite ant žalios mygtukų su juodo kryžiaus žemyn,; žalią mygtuką su brūkšneliu, jei norite nutolinti; arba žalių rodyklių gretimoms žemėlapius.


METAR-TAF: